createdAt,value
2018-04-22T00:00:59.463Z,0.00
2018-04-22T00:01:59.372Z,0.00
2018-04-22T00:02:59.268Z,0.00
2018-04-22T00:03:59.215Z,0.00
2018-04-22T00:04:59.073Z,0.00
2018-04-22T00:05:58.970Z,0.00
2018-04-22T00:06:58.881Z,0.00
2018-04-22T00:07:58.785Z,0.00
2018-04-22T00:08:58.685Z,0.00
2018-04-22T00:09:58.582Z,0.00
2018-04-22T00:10:58.478Z,0.00
2018-04-22T00:11:58.389Z,0.00
2018-04-22T00:12:58.285Z,0.00
2018-04-22T00:13:58.193Z,0.00
2018-04-22T00:14:58.097Z,0.00
2018-04-22T00:15:57.990Z,0.00
2018-04-22T00:16:57.897Z,0.00
2018-04-22T00:17:57.794Z,0.00
2018-04-22T00:18:57.702Z,0.00
2018-04-22T00:19:57.598Z,0.00
2018-04-22T00:20:57.497Z,0.00
2018-04-22T00:21:57.405Z,0.00
2018-04-22T00:22:57.302Z,0.00
2018-04-22T00:23:57.211Z,0.00
2018-04-22T00:24:57.108Z,0.00
2018-04-22T00:25:57.017Z,0.00
2018-04-22T00:26:56.915Z,0.00
2018-04-22T00:27:56.823Z,0.00
2018-04-22T00:28:56.719Z,0.00
2018-04-22T00:29:56.616Z,0.00
2018-04-22T00:30:56.525Z,0.00
2018-04-22T00:31:56.426Z,0.00
2018-04-22T00:32:56.330Z,0.00
2018-04-22T00:33:56.228Z,0.00
2018-04-22T00:34:56.124Z,0.00
2018-04-22T00:35:56.035Z,0.00
2018-04-22T00:36:55.931Z,0.00
2018-04-22T00:37:55.839Z,0.00
2018-04-22T00:38:55.736Z,0.00
2018-04-22T00:39:55.633Z,0.00
2018-04-22T00:40:55.542Z,0.00
2018-04-22T00:41:55.439Z,0.00
2018-04-22T00:42:55.348Z,0.00
2018-04-22T00:43:55.244Z,0.00
2018-04-22T00:44:55.141Z,0.00
2018-04-22T00:45:55.052Z,0.00
2018-04-22T00:46:55.250Z,0.00
2018-04-22T00:47:54.858Z,0.00
2018-04-22T00:48:54.766Z,0.00
2018-04-22T00:49:54.653Z,0.00
2018-04-22T00:50:54.561Z,0.00
2018-04-22T00:51:54.458Z,0.00
2018-04-22T00:52:54.365Z,0.00
2018-04-22T00:53:54.263Z,0.00
2018-04-22T00:54:54.160Z,0.00
2018-04-22T00:55:54.069Z,0.00
2018-04-22T00:56:53.967Z,0.00
2018-04-22T00:57:53.874Z,0.00
2018-04-22T00:58:53.772Z,0.00
2018-04-22T00:59:53.668Z,0.00
2018-04-22T01:00:53.578Z,0.00
2018-04-22T01:01:53.482Z,0.00
2018-04-22T01:02:53.382Z,0.00
2018-04-22T01:03:53.280Z,0.00
2018-04-22T01:04:53.177Z,0.00
2018-04-22T01:05:53.086Z,0.00
2018-04-22T01:06:52.983Z,0.00
2018-04-22T01:07:52.890Z,0.00
2018-04-22T01:08:52.790Z,0.00
2018-04-22T01:09:52.684Z,0.00
2018-04-22T01:10:52.595Z,0.00
2018-04-22T01:11:52.742Z,0.00
2018-04-22T01:12:52.388Z,0.00
2018-04-22T01:13:52.297Z,0.00
2018-04-22T01:14:52.193Z,0.00
2018-04-22T01:15:52.104Z,0.00
2018-04-22T01:16:52.000Z,0.00
2018-04-22T01:17:51.902Z,0.00
2018-04-22T01:18:51.806Z,0.00
2018-04-22T01:19:51.714Z,0.00
2018-04-22T01:20:51.600Z,0.00
2018-04-22T01:21:51.758Z,0.00
2018-04-22T01:22:51.406Z,0.00
2018-04-22T01:23:51.315Z,0.00
2018-04-22T01:24:51.212Z,0.00
2018-04-22T01:25:51.109Z,0.00
2018-04-22T01:26:51.020Z,0.00
2018-04-22T01:27:50.917Z,0.00
2018-04-22T01:28:50.813Z,0.00
2018-04-22T01:29:50.725Z,0.00
2018-04-22T01:30:50.619Z,0.00
2018-04-22T01:31:50.766Z,0.00
2018-04-22T01:32:50.426Z,0.00
2018-04-22T01:33:50.327Z,0.00
2018-04-22T01:34:50.232Z,0.00
2018-04-22T01:35:50.128Z,0.00
2018-04-22T01:36:50.025Z,0.00
2018-04-22T01:37:49.939Z,0.00
2018-04-22T01:38:49.832Z,0.00
2018-04-22T01:39:49.729Z,0.00
2018-04-22T01:40:49.639Z,0.00
2018-04-22T01:41:49.546Z,0.00
2018-04-22T01:42:49.432Z,0.00
2018-04-22T01:43:49.340Z,0.00
2018-04-22T01:44:49.238Z,0.00
2018-04-22T01:45:49.136Z,0.00
2018-04-22T01:46:49.043Z,0.00
2018-04-22T01:47:48.939Z,0.00
2018-04-22T01:48:48.836Z,0.00
2018-04-22T01:49:48.749Z,0.00
2018-04-22T01:50:48.643Z,0.00
2018-04-22T01:51:48.852Z,0.00
2018-04-22T01:52:48.447Z,0.00
2018-04-22T01:53:48.345Z,0.00
2018-04-22T01:54:48.243Z,0.00
2018-04-22T01:55:48.152Z,0.00
2018-04-22T01:56:48.047Z,0.00
2018-04-22T01:57:47.944Z,0.00
2018-04-22T01:58:47.852Z,0.00
2018-04-22T01:59:47.749Z,0.00
2018-04-22T02:00:47.646Z,0.00
2018-04-22T02:01:47.856Z,0.00
2018-04-22T02:02:47.459Z,0.00
2018-04-22T02:03:47.362Z,0.00
2018-04-22T02:04:47.256Z,0.00
2018-04-22T02:05:47.153Z,0.00
2018-04-22T02:06:47.050Z,0.00
2018-04-22T02:07:46.959Z,0.00
2018-04-22T02:08:46.856Z,0.00
2018-04-22T02:09:46.752Z,0.00
2018-04-22T02:10:46.660Z,0.00
2018-04-22T02:11:46.559Z,0.00
2018-04-22T02:12:46.455Z,0.00
2018-04-22T02:13:46.365Z,0.00
2018-04-22T02:14:46.264Z,0.00
2018-04-22T02:15:46.161Z,0.00
2018-04-22T02:16:46.066Z,0.00
2018-04-22T02:17:45.975Z,0.00
2018-04-22T02:18:45.861Z,0.00
2018-04-22T02:19:45.769Z,0.00
2018-04-22T02:20:45.666Z,0.00
2018-04-22T02:21:45.813Z,0.00
2018-04-22T02:22:45.470Z,0.00
2018-04-22T02:23:45.367Z,0.00
2018-04-22T02:24:45.264Z,0.00
2018-04-22T02:25:45.174Z,0.00
2018-04-22T02:26:45.071Z,0.00
2018-04-22T02:27:45.004Z,0.00
2018-04-22T02:28:44.876Z,0.00
2018-04-22T02:29:44.772Z,0.00
2018-04-22T02:30:44.668Z,0.00
2018-04-22T02:31:44.583Z,0.00
2018-04-22T02:32:44.476Z,0.00
2018-04-22T02:33:44.372Z,0.00
2018-04-22T02:34:44.274Z,0.00
2018-04-22T02:35:44.178Z,0.00
2018-04-22T02:36:44.089Z,0.00
2018-04-22T02:37:43.969Z,0.00
2018-04-22T02:38:43.880Z,0.00
2018-04-22T02:39:43.777Z,0.00
2018-04-22T02:40:43.684Z,0.00
2018-04-22T02:41:43.581Z,0.00
2018-04-22T02:42:43.477Z,0.00
2018-04-22T02:43:43.374Z,0.00
2018-04-22T02:44:43.286Z,0.00
2018-04-22T02:45:43.181Z,0.00
2018-04-22T02:46:43.077Z,0.00
2018-04-22T02:47:42.986Z,0.00
2018-04-22T02:48:42.882Z,0.00
2018-04-22T02:49:42.779Z,0.00
2018-04-22T02:50:42.676Z,0.00
2018-04-22T02:51:42.586Z,0.00
2018-04-22T02:52:42.486Z,0.00
2018-04-22T02:53:42.379Z,0.00
2018-04-22T02:54:42.286Z,0.00
2018-04-22T02:55:42.183Z,0.00
2018-04-22T02:56:42.082Z,0.00
2018-04-22T02:57:41.990Z,0.00
2018-04-22T02:58:41.886Z,0.00
2018-04-22T02:59:41.783Z,0.00
2018-04-22T03:00:41.679Z,0.00
2018-04-22T03:01:41.838Z,0.00
2018-04-22T03:02:41.484Z,0.00
2018-04-22T03:03:41.381Z,0.00
2018-04-22T03:04:41.292Z,0.00
2018-04-22T03:05:41.190Z,0.00
2018-04-22T03:06:41.084Z,0.00
2018-04-22T03:07:40.994Z,0.00
2018-04-22T03:08:40.889Z,0.00
2018-04-22T03:09:40.786Z,0.00
2018-04-22T03:10:40.692Z,0.00
2018-04-22T03:11:40.596Z,0.00
2018-04-22T03:12:40.491Z,0.00
2018-04-22T03:13:40.386Z,0.00
2018-04-22T03:14:40.298Z,0.00
2018-04-22T03:15:40.190Z,0.00
2018-04-22T03:16:40.088Z,0.00
2018-04-22T03:17:39.997Z,0.00
2018-04-22T03:18:39.894Z,4.00
2018-04-22T03:19:39.793Z,4.00
2018-04-22T03:20:39.688Z,0.00
2018-04-22T03:21:39.895Z,0.00
2018-04-22T03:22:39.493Z,4.00
2018-04-22T03:23:39.401Z,4.00
2018-04-22T03:24:39.298Z,4.00
2018-04-22T03:25:39.196Z,8.00
2018-04-22T03:26:39.092Z,4.00
2018-04-22T03:27:38.992Z,4.00
2018-04-22T03:28:38.897Z,8.00
2018-04-22T03:29:38.794Z,12.00
2018-04-22T03:30:38.690Z,8.00
2018-04-22T03:31:38.601Z,12.00
2018-04-22T03:32:38.497Z,16.00
2018-04-22T03:33:38.395Z,16.00
2018-04-22T03:34:38.292Z,20.00
2018-04-22T03:35:38.204Z,24.00
2018-04-22T03:36:38.096Z,28.00
2018-04-22T03:37:37.993Z,28.00
2018-04-22T03:38:37.903Z,32.00
2018-04-22T03:39:37.800Z,36.00
2018-04-22T03:40:37.697Z,44.00
2018-04-22T03:41:37.605Z,48.00
2018-04-22T03:42:37.506Z,56.00
2018-04-22T03:43:37.402Z,64.00
2018-04-22T03:44:37.295Z,72.00
2018-04-22T03:45:37.205Z,84.00
2018-04-22T03:46:37.102Z,92.00
2018-04-22T03:47:37.003Z,100.00
2018-04-22T03:48:36.900Z,116.00
2018-04-22T03:49:36.805Z,128.00
2018-04-22T03:50:36.704Z,144.00
2018-04-22T03:51:36.903Z,160.00
2018-04-22T03:52:36.507Z,172.00
2018-04-22T03:53:36.404Z,192.00
2018-04-22T03:54:36.301Z,208.00
2018-04-22T03:55:36.198Z,232.00
2018-04-22T03:56:36.106Z,252.00
2018-04-22T03:57:36.003Z,272.00
2018-04-22T03:58:35.904Z,292.00
2018-04-22T03:59:35.798Z,316.00
2018-04-22T04:00:35.707Z,336.00
2018-04-22T04:01:35.852Z,368.00
2018-04-22T04:02:35.500Z,392.00
2018-04-22T04:03:35.399Z,420.00
2018-04-22T04:04:35.305Z,448.00
2018-04-22T04:05:35.202Z,480.00
2018-04-22T04:06:35.098Z,512.00
2018-04-22T04:07:35.009Z,544.00
2018-04-22T04:08:34.905Z,580.00
2018-04-22T04:09:34.809Z,620.00
2018-04-22T04:10:34.710Z,664.00
2018-04-22T04:11:34.607Z,716.00
2018-04-22T04:12:34.503Z,772.00
2018-04-22T04:13:34.400Z,828.00
2018-04-22T04:14:34.360Z,896.00
2018-04-22T04:15:34.206Z,964.00
2018-04-22T04:16:34.106Z,1028.00
2018-04-22T04:17:34.013Z,1096.00
2018-04-22T04:18:33.908Z,1168.00
2018-04-22T04:19:33.805Z,1248.00
2018-04-22T04:20:33.702Z,1328.00
2018-04-22T04:21:33.610Z,1416.00
2018-04-22T04:22:33.507Z,1492.00
2018-04-22T04:23:33.404Z,1568.00
2018-04-22T04:24:33.314Z,1644.00
2018-04-22T04:25:33.210Z,1732.00
2018-04-22T04:26:33.107Z,1816.00
2018-04-22T04:27:33.017Z,1884.00
2018-04-22T04:28:32.912Z,1964.00
2018-04-22T04:29:32.810Z,2036.00
2018-04-22T04:30:32.718Z,2116.00
2018-04-22T04:31:32.615Z,2184.00
2018-04-22T04:32:32.512Z,2236.00
2018-04-22T04:33:32.422Z,2292.00
2018-04-22T04:34:32.319Z,2368.00
2018-04-22T04:35:32.227Z,2428.00
2018-04-22T04:36:32.123Z,2508.00
2018-04-22T04:37:32.024Z,2616.00
2018-04-22T04:38:31.930Z,2704.00
2018-04-22T04:39:31.834Z,2816.00
2018-04-22T04:40:31.735Z,2888.00
2018-04-22T04:41:31.635Z,2956.00
2018-04-22T04:42:31.528Z,3020.00
2018-04-22T04:43:31.488Z,3060.00
2018-04-22T04:44:31.341Z,3112.00
2018-04-22T04:45:31.243Z,3196.00
2018-04-22T04:46:31.140Z,3160.00
2018-04-22T04:47:31.050Z,3076.00
2018-04-22T04:48:30.947Z,3132.00
2018-04-22T04:49:30.855Z,3296.00
2018-04-22T04:50:30.752Z,3452.00
2018-04-22T04:51:30.962Z,3528.00
2018-04-22T04:52:30.559Z,3512.00
2018-04-22T04:53:30.482Z,3636.00
2018-04-22T04:54:30.363Z,3744.00
2018-04-22T04:55:30.275Z,3820.00
2018-04-22T04:56:30.170Z,3876.00
2018-04-22T04:57:30.079Z,3920.00
2018-04-22T04:58:29.975Z,3972.00
2018-04-22T04:59:29.885Z,3976.00
2018-04-22T05:00:29.782Z,3996.00
2018-04-22T05:01:29.691Z,4032.00
2018-04-22T05:02:29.601Z,4004.00
2018-04-22T05:03:29.497Z,3972.00
2018-04-22T05:04:29.407Z,3912.00
2018-04-22T05:05:29.301Z,3904.00
2018-04-22T05:06:29.212Z,3912.00
2018-04-22T05:07:29.119Z,3968.00
2018-04-22T05:08:29.018Z,3964.00
2018-04-22T05:09:28.932Z,3724.00
2018-04-22T05:10:28.824Z,3776.00
2018-04-22T05:11:28.733Z,3760.00
2018-04-22T05:12:28.641Z,3804.00
2018-04-22T05:13:28.540Z,3700.00
2018-04-22T05:14:28.448Z,3984.00
2018-04-22T05:15:28.363Z,4004.00
2018-04-22T05:16:28.254Z,4100.00
2018-04-22T05:17:28.162Z,4324.00
2018-04-22T05:18:28.076Z,4200.00
2018-04-22T05:19:27.968Z,4060.00
2018-04-22T05:20:27.877Z,4404.00
2018-04-22T05:21:27.775Z,4456.00
2018-04-22T05:22:27.689Z,4300.00
2018-04-22T05:23:27.592Z,4252.00
2018-04-22T05:24:27.491Z,4432.00
2018-04-22T05:25:27.399Z,4556.00
2018-04-22T05:26:27.307Z,4740.00
2018-04-22T05:27:27.217Z,5020.00
2018-04-22T05:28:27.115Z,5064.00
2018-04-22T05:29:27.022Z,5404.00
2018-04-22T05:30:26.932Z,5692.00
2018-04-22T05:31:26.830Z,5916.00
2018-04-22T05:32:26.738Z,5984.00
2018-04-22T05:33:26.650Z,6084.00
2018-04-22T05:34:26.549Z,6244.00
2018-04-22T05:35:26.453Z,6348.00
2018-04-22T05:36:26.370Z,6456.00
2018-04-22T05:37:26.271Z,6508.00
2018-04-22T05:38:26.168Z,6592.00
2018-04-22T05:39:26.081Z,6696.00
2018-04-22T05:40:25.988Z,6796.00
2018-04-22T05:41:26.146Z,6916.00
2018-04-22T05:42:25.792Z,7060.00
2018-04-22T05:43:25.702Z,7212.00
2018-04-22T05:44:25.612Z,7372.00
2018-04-22T05:45:25.519Z,7528.00
2018-04-22T05:46:25.431Z,7620.00
2018-04-22T05:47:25.326Z,7628.00
2018-04-22T05:48:25.235Z,7540.00
2018-04-22T05:49:25.147Z,7528.00
2018-04-22T05:50:25.053Z,7588.00
2018-04-22T05:51:24.963Z,7684.00
2018-04-22T05:52:24.871Z,7760.00
2018-04-22T05:53:24.782Z,7940.00
2018-04-22T05:54:24.680Z,8088.00
2018-04-22T05:55:24.588Z,7820.00
2018-04-22T05:56:24.496Z,7824.00
2018-04-22T05:57:24.405Z,7180.00
2018-04-22T05:58:24.316Z,7872.00
2018-04-22T05:59:24.236Z,7832.00
2018-04-22T06:00:24.133Z,8056.00
2018-04-22T06:01:24.062Z,8080.00
2018-04-22T06:02:23.940Z,8340.00
2018-04-22T06:03:23.848Z,8348.00
2018-04-22T06:04:23.756Z,8504.00
2018-04-22T06:05:23.667Z,8608.00
2018-04-22T06:06:23.875Z,8688.00
2018-04-22T06:07:23.486Z,8264.00
2018-04-22T06:08:23.393Z,7988.00
2018-04-22T06:09:23.304Z,8368.00
2018-04-22T06:10:23.212Z,8476.00
2018-04-22T06:11:23.121Z,8528.00
2018-04-22T06:12:23.030Z,8620.00
2018-04-22T06:13:22.941Z,8552.00
2018-04-22T06:14:22.855Z,8932.00
2018-04-22T06:15:22.759Z,8976.00
2018-04-22T06:16:22.668Z,9040.00
2018-04-22T06:17:22.581Z,9080.00
2018-04-22T06:18:22.489Z,9120.00
2018-04-22T06:19:22.401Z,9188.00
2018-04-22T06:20:22.305Z,9208.00
2018-04-22T06:21:22.227Z,9172.00
2018-04-22T06:22:22.139Z,9180.00
2018-04-22T06:23:22.044Z,9180.00
2018-04-22T06:24:21.954Z,9184.00
2018-04-22T06:25:21.862Z,9232.00
2018-04-22T06:26:21.772Z,9276.00
2018-04-22T06:27:21.681Z,9300.00
2018-04-22T06:28:21.626Z,9300.00
2018-04-22T06:29:21.499Z,9312.00
2018-04-22T06:30:21.421Z,9344.00
2018-04-22T06:31:21.320Z,9340.00
2018-04-22T06:32:21.239Z,9356.00
2018-04-22T06:33:21.149Z,9372.00
2018-04-22T06:34:21.058Z,9376.00
2018-04-22T06:35:20.966Z,9364.00
2018-04-22T06:36:20.876Z,9320.00
2018-04-22T06:37:20.786Z,9344.00
2018-04-22T06:38:20.697Z,9364.00
2018-04-22T06:39:20.616Z,9364.00
2018-04-22T06:40:20.534Z,9400.00
2018-04-22T06:41:20.434Z,9404.00
2018-04-22T06:42:20.344Z,9436.00
2018-04-22T06:43:20.254Z,9468.00
2018-04-22T06:44:20.164Z,9468.00
2018-04-22T06:45:20.085Z,9500.00
2018-04-22T06:46:19.992Z,9528.00
2018-04-22T06:47:19.903Z,9552.00
2018-04-22T06:48:19.815Z,9592.00
2018-04-22T06:49:19.720Z,9588.00
2018-04-22T06:50:19.643Z,9620.00
2018-04-22T06:51:19.801Z,9740.00
2018-04-22T06:52:19.461Z,9748.00
2018-04-22T06:53:19.426Z,9776.00
2018-04-22T06:54:19.291Z,9876.00
2018-04-22T06:55:19.201Z,9848.00
2018-04-22T06:56:19.111Z,9964.00
2018-04-22T06:57:19.019Z,9968.00
2018-04-22T06:58:18.943Z,10120.00
2018-04-22T06:59:18.850Z,10260.00
2018-04-22T07:00:18.759Z,10436.00
2018-04-22T07:01:18.981Z,10560.00
2018-04-22T07:02:18.590Z,10656.00
2018-04-22T07:03:18.514Z,10756.00
2018-04-22T07:04:18.408Z,10824.00
2018-04-22T07:05:18.330Z,11000.00
2018-04-22T07:06:18.241Z,11060.00
2018-04-22T07:07:18.150Z,11120.00
2018-04-22T07:08:18.069Z,11100.00
2018-04-22T07:09:17.982Z,11148.00
2018-04-22T07:10:17.889Z,11340.00
2018-04-22T07:11:17.810Z,11468.00
2018-04-22T07:12:17.720Z,11496.00
2018-04-22T07:13:17.641Z,11476.00
2018-04-22T07:14:17.550Z,11496.00
2018-04-22T07:15:17.460Z,11524.00
2018-04-22T07:16:17.382Z,11464.00
2018-04-22T07:17:17.290Z,11452.00
2018-04-22T07:18:17.200Z,11324.00
2018-04-22T07:19:17.121Z,10832.00
2018-04-22T07:20:17.033Z,9440.00
2018-04-22T07:21:17.190Z,7936.00
2018-04-22T07:22:16.861Z,7080.00
2018-04-22T07:23:16.770Z,6776.00
2018-04-22T07:24:16.712Z,6652.00
2018-04-22T07:25:16.601Z,6604.00
2018-04-22T07:26:16.510Z,6608.00
2018-04-22T07:27:16.420Z,6584.00
2018-04-22T07:28:16.341Z,6484.00
2018-04-22T07:29:16.271Z,6360.00
2018-04-22T07:30:16.159Z,6228.00
2018-04-22T07:31:16.069Z,6128.00
2018-04-22T07:32:16.015Z,6048.00
2018-04-22T07:33:15.900Z,6020.00
2018-04-22T07:34:15.808Z,6020.00
2018-04-22T07:35:15.746Z,6012.00
2018-04-22T07:36:15.631Z,5988.00
2018-04-22T07:37:15.551Z,5976.00
2018-04-22T07:38:15.459Z,5984.00
2018-04-22T07:39:15.367Z,5816.00
2018-04-22T07:40:15.277Z,5884.00
2018-04-22T07:41:15.185Z,5892.00
2018-04-22T07:42:15.099Z,5896.00
2018-04-22T07:43:15.003Z,5892.00
2018-04-22T07:44:14.913Z,5920.00
2018-04-22T07:45:14.823Z,5968.00
2018-04-22T07:46:14.743Z,5964.00
2018-04-22T07:47:14.655Z,5980.00
2018-04-22T07:48:14.563Z,6008.00
2018-04-22T07:49:14.471Z,6024.00
2018-04-22T07:50:14.386Z,6032.00
2018-04-22T07:51:14.290Z,6064.00
2018-04-22T07:52:14.198Z,6100.00
2018-04-22T07:53:14.108Z,5936.00
2018-04-22T07:54:14.017Z,5832.00
2018-04-22T07:55:13.929Z,5972.00
2018-04-22T07:56:13.835Z,6000.00
2018-04-22T07:57:13.745Z,6112.00
2018-04-22T07:58:13.653Z,6164.00
2018-04-22T07:59:13.563Z,6204.00
2018-04-22T08:00:13.472Z,6224.00
2018-04-22T08:01:13.369Z,6240.00
2018-04-22T08:02:13.280Z,6264.00
2018-04-22T08:03:13.187Z,6268.00
2018-04-22T08:04:13.096Z,6284.00
2018-04-22T08:05:13.006Z,6300.00
2018-04-22T08:06:12.914Z,6308.00
2018-04-22T08:07:12.823Z,6312.00
2018-04-22T08:08:12.736Z,6328.00
2018-04-22T08:09:12.644Z,6332.00
2018-04-22T08:10:12.551Z,6364.00
2018-04-22T08:11:12.461Z,6368.00
2018-04-22T08:12:12.370Z,6368.00
2018-04-22T08:13:12.279Z,6368.00
2018-04-22T08:14:12.179Z,6368.00
2018-04-22T08:15:12.090Z,6380.00
2018-04-22T08:16:11.999Z,6388.00
2018-04-22T08:17:11.907Z,6400.00
2018-04-22T08:18:11.813Z,6408.00
2018-04-22T08:19:11.722Z,6416.00
2018-04-22T08:20:11.632Z,6432.00
2018-04-22T08:21:11.844Z,6452.00
2018-04-22T08:22:11.449Z,6468.00
2018-04-22T08:23:11.348Z,6476.00
2018-04-22T08:24:11.256Z,6480.00
2018-04-22T08:25:11.164Z,6492.00
2018-04-22T08:26:11.074Z,6492.00
2018-04-22T08:27:10.982Z,6500.00
2018-04-22T08:28:10.894Z,6524.00
2018-04-22T08:29:10.817Z,6536.00
2018-04-22T08:30:10.711Z,6552.00
2018-04-22T08:31:10.620Z,6572.00
2018-04-22T08:32:10.516Z,6600.00
2018-04-22T08:33:10.426Z,6616.00
2018-04-22T08:34:10.334Z,6624.00
2018-04-22T08:35:10.248Z,6636.00
2018-04-22T08:36:10.154Z,6648.00
2018-04-22T08:37:10.063Z,6636.00
2018-04-22T08:38:09.971Z,6648.00
2018-04-22T08:39:09.881Z,6672.00
2018-04-22T08:40:09.779Z,6676.00
2018-04-22T08:41:09.686Z,6672.00
2018-04-22T08:42:09.607Z,6664.00
2018-04-22T08:43:09.505Z,6680.00
2018-04-22T08:44:09.418Z,6688.00
2018-04-22T08:45:09.323Z,6696.00
2018-04-22T08:46:09.233Z,6708.00
2018-04-22T08:47:09.145Z,6728.00
2018-04-22T08:48:09.052Z,6736.00
2018-04-22T08:49:08.948Z,6784.00
2018-04-22T08:50:08.856Z,6900.00
2018-04-22T08:51:08.766Z,7048.00
2018-04-22T08:52:08.674Z,7212.00
2018-04-22T08:53:08.586Z,7384.00
2018-04-22T08:54:08.497Z,7552.00
2018-04-22T08:55:08.403Z,7764.00
2018-04-22T08:56:08.313Z,8060.00
2018-04-22T08:57:08.210Z,8372.00
2018-04-22T08:58:08.120Z,8660.00
2018-04-22T08:59:08.028Z,8888.00
2018-04-22T09:00:07.938Z,9056.00
2018-04-22T09:01:07.845Z,8972.00
2018-04-22T09:02:07.779Z,8876.00
2018-04-22T09:03:07.664Z,8648.00
2018-04-22T09:04:07.573Z,9008.00
2018-04-22T09:05:07.482Z,8712.00
2018-04-22T09:06:07.379Z,8704.00
2018-04-22T09:07:07.288Z,9000.00
2018-04-22T09:08:07.196Z,9884.00
2018-04-22T09:09:07.107Z,14416.00
2018-04-22T09:10:07.015Z,26816.00
2018-04-22T09:11:06.927Z,37280.00
2018-04-22T09:12:06.833Z,42752.00
2018-04-22T09:13:06.750Z,44192.00
2018-04-22T09:14:06.651Z,40608.00
2018-04-22T09:15:06.571Z,34880.00
2018-04-22T09:16:06.470Z,25376.00
2018-04-22T09:17:06.382Z,17184.00
2018-04-22T09:18:06.288Z,10404.00
2018-04-22T09:19:06.198Z,8360.00
2018-04-22T09:20:06.107Z,8068.00
2018-04-22T09:21:06.016Z,7848.00
2018-04-22T09:22:05.926Z,7608.00
2018-04-22T09:23:05.835Z,7500.00
2018-04-22T09:24:05.744Z,7468.00
2018-04-22T09:25:05.653Z,9076.00
2018-04-22T09:26:05.575Z,12808.00
2018-04-22T09:27:05.496Z,14644.00
2018-04-22T09:28:05.393Z,13864.00
2018-04-22T09:29:05.301Z,29600.00
2018-04-22T09:30:05.215Z,49888.00
2018-04-22T09:31:05.122Z,58144.00
2018-04-22T09:32:05.030Z,59200.00
2018-04-22T09:33:04.987Z,55136.00
2018-04-22T09:34:04.852Z,59776.00
2018-04-22T09:35:04.771Z,62464.00
2018-04-22T09:36:04.691Z,61248.00
2018-04-22T09:37:04.594Z,62112.00
2018-04-22T09:38:04.497Z,57760.00
2018-04-22T09:39:04.418Z,53984.00
2018-04-22T09:40:04.331Z,42272.00
2018-04-22T09:41:04.236Z,58336.00
2018-04-22T09:42:04.158Z,60576.00
2018-04-22T09:43:04.123Z,57408.00
2018-04-22T09:44:03.978Z,52384.00
2018-04-22T09:45:03.898Z,50784.00
2018-04-22T09:46:03.808Z,48544.00
2018-04-22T09:47:03.730Z,48704.00
2018-04-22T09:48:03.638Z,47392.00
2018-04-22T09:49:03.560Z,46368.00
2018-04-22T09:50:03.483Z,44960.00
2018-04-22T09:51:03.392Z,42720.00
2018-04-22T09:52:03.314Z,42304.00
2018-04-22T09:53:03.223Z,41920.00
2018-04-22T09:54:03.143Z,36736.00
2018-04-22T09:55:03.065Z,40416.00
2018-04-22T09:56:02.987Z,40288.00
2018-04-22T09:57:02.897Z,40736.00
2018-04-22T09:58:02.818Z,41024.00
2018-04-22T09:59:02.740Z,39040.00
2018-04-22T10:00:02.663Z,37184.00
2018-04-22T10:01:02.571Z,32448.00
2018-04-22T10:02:02.493Z,35264.00
2018-04-22T10:03:02.416Z,40064.00
2018-04-22T10:04:02.337Z,46240.00
2018-04-22T10:05:02.257Z,50528.00
2018-04-22T10:06:02.183Z,50752.00
2018-04-22T10:07:02.098Z,54048.00
2018-04-22T10:08:02.010Z,54400.00
2018-04-22T10:09:01.934Z,55616.00
2018-04-22T10:10:01.854Z,55392.00
2018-04-22T10:11:01.777Z,55584.00
2018-04-22T10:12:01.697Z,55488.00
2018-04-22T10:13:01.618Z,54080.00
2018-04-22T10:14:01.540Z,53920.00
2018-04-22T10:15:01.462Z,55104.00
2018-04-22T10:16:01.384Z,47360.00
2018-04-22T10:17:01.306Z,45760.00
2018-04-22T10:18:01.229Z,51232.00
2018-04-22T10:19:01.149Z,54496.00
2018-04-22T10:20:01.072Z,56000.00
2018-04-22T10:21:00.992Z,56864.00
2018-04-22T10:22:00.913Z,57920.00
2018-04-22T10:23:00.837Z,57344.00
2018-04-22T10:24:00.761Z,57504.00
2018-04-22T10:25:00.679Z,58432.00
2018-04-22T10:26:00.602Z,58080.00
2018-04-22T10:27:00.522Z,58048.00
2018-04-22T10:28:00.444Z,57696.00
2018-04-22T10:29:00.366Z,58048.00
2018-04-22T10:30:00.307Z,59456.00
2018-04-22T10:31:00.221Z,79168.00
2018-04-22T10:32:00.143Z,128448.00
2018-04-22T10:33:00.065Z,156128.00
2018-04-22T10:33:59.986Z,143744.00
2018-04-22T10:34:59.908Z,127328.00
2018-04-22T10:35:59.843Z,118432.00
2018-04-22T10:36:59.765Z,80064.00
2018-04-22T10:37:59.689Z,67232.00
2018-04-22T10:38:59.607Z,96000.00
2018-04-22T10:39:59.536Z,91712.00
2018-04-22T10:40:59.462Z,86656.00
2018-04-22T10:41:59.439Z,91968.00
2018-04-22T10:42:59.306Z,88544.00
2018-04-22T10:43:59.228Z,81632.00
2018-04-22T10:44:59.163Z,71552.00
2018-04-22T10:45:59.090Z,63424.00
2018-04-22T10:46:59.011Z,54368.00
2018-04-22T10:47:58.927Z,47456.00
2018-04-22T10:48:58.850Z,49984.00
2018-04-22T10:49:58.771Z,51392.00
2018-04-22T10:50:58.708Z,51232.00
2018-04-22T10:51:58.631Z,53024.00
2018-04-22T10:52:58.567Z,56896.00
2018-04-22T10:53:58.469Z,54912.00
2018-04-22T10:54:58.391Z,45696.00
2018-04-22T10:55:58.313Z,34240.00
2018-04-22T10:56:58.235Z,50560.00
2018-04-22T10:57:58.208Z,58208.00
2018-04-22T10:58:58.077Z,60544.00
2018-04-22T10:59:57.988Z,51040.00
2018-04-22T11:00:57.909Z,47136.00
2018-04-22T11:01:57.837Z,47488.00
2018-04-22T11:02:57.752Z,49792.00
2018-04-22T11:03:57.674Z,48480.00
2018-04-22T11:04:57.596Z,46720.00
2018-04-22T11:05:57.518Z,42656.00
2018-04-22T11:06:57.427Z,38656.00
2018-04-22T11:07:57.354Z,33568.00
2018-04-22T11:08:57.269Z,29632.00
2018-04-22T11:09:57.191Z,24800.00
2018-04-22T11:10:57.114Z,23520.00
2018-04-22T11:11:57.023Z,23776.00
2018-04-22T11:12:56.949Z,21664.00
2018-04-22T11:13:56.866Z,20608.00
2018-04-22T11:14:56.775Z,15708.00
2018-04-22T11:15:56.696Z,11028.00
2018-04-22T11:16:56.619Z,12636.00
2018-04-22T11:17:56.529Z,12328.00
2018-04-22T11:18:56.449Z,11296.00
2018-04-22T11:19:56.359Z,13368.00
2018-04-22T11:20:56.293Z,10104.00
2018-04-22T11:21:56.201Z,9472.00
2018-04-22T11:22:56.111Z,9244.00
2018-04-22T11:23:56.033Z,8940.00
2018-04-22T11:24:55.942Z,8708.00
2018-04-22T11:25:55.863Z,8692.00
2018-04-22T11:26:55.773Z,8660.00
2018-04-22T11:27:55.683Z,8692.00
2018-04-22T11:28:55.607Z,8720.00
2018-04-22T11:29:55.513Z,8912.00
2018-04-22T11:30:55.435Z,9160.00
2018-04-22T11:31:55.343Z,9296.00
2018-04-22T11:32:55.273Z,9400.00
2018-04-22T11:33:55.177Z,9428.00
2018-04-22T11:34:55.083Z,9376.00
2018-04-22T11:35:55.005Z,9400.00
2018-04-22T11:36:54.917Z,9308.00
2018-04-22T11:37:54.824Z,9248.00
2018-04-22T11:38:54.748Z,9256.00
2018-04-22T11:39:54.655Z,9116.00
2018-04-22T11:40:54.815Z,8840.00
2018-04-22T11:41:54.485Z,8580.00
2018-04-22T11:42:54.420Z,8368.00
2018-04-22T11:43:54.303Z,8196.00
2018-04-22T11:44:54.226Z,8080.00
2018-04-22T11:45:54.135Z,8016.00
2018-04-22T11:46:54.043Z,7996.00
2018-04-22T11:47:53.954Z,7916.00
2018-04-22T11:48:53.876Z,7808.00
2018-04-22T11:49:53.786Z,7756.00
2018-04-22T11:50:53.694Z,7724.00
2018-04-22T11:51:53.604Z,7796.00
2018-04-22T11:52:53.523Z,7872.00
2018-04-22T11:53:53.434Z,7848.00
2018-04-22T11:54:53.346Z,7736.00
2018-04-22T11:55:53.252Z,7668.00
2018-04-22T11:56:53.174Z,7596.00
2018-04-22T11:57:53.083Z,7896.00
2018-04-22T11:58:52.996Z,7940.00
2018-04-22T11:59:52.949Z,7932.00
2018-04-22T12:00:52.811Z,7916.00
2018-04-22T12:01:52.733Z,7924.00
2018-04-22T12:02:52.640Z,8044.00
2018-04-22T12:03:52.551Z,8128.00
2018-04-22T12:04:52.459Z,8292.00
2018-04-22T12:05:52.378Z,8160.00
2018-04-22T12:06:52.291Z,8508.00
2018-04-22T12:07:52.199Z,8360.00
2018-04-22T12:08:52.109Z,8016.00
2018-04-22T12:09:52.017Z,7776.00
2018-04-22T12:10:51.927Z,7836.00
2018-04-22T12:11:51.837Z,7880.00
2018-04-22T12:12:51.757Z,7864.00
2018-04-22T12:13:51.667Z,7872.00
2018-04-22T12:14:51.576Z,7920.00
2018-04-22T12:15:51.736Z,7960.00
2018-04-22T12:16:51.395Z,8128.00
2018-04-22T12:17:51.316Z,8308.00
2018-04-22T12:18:51.226Z,8236.00
2018-04-22T12:19:51.134Z,7940.00
2018-04-22T12:20:51.045Z,7616.00
2018-04-22T12:21:50.955Z,7448.00